Hingham, Montana
Current Conditions -  °F | °C
As of 8:17 PM on Thursday 27 Nov 2014 (Local Time) from KHVR Reporting Station
Haze Haze  
Wind Chill: 24°   Ceiling: 300
Heat Index: 29°   Visibility: 1.2mi
Dew Point: 27°   Wind: 5mph
Humidity: 92%   Direction: 320°NW
Pressure: 29.7"   Gusts: NA
Location:  48.55°N, 110.42°W
Report Text: KHVR 280317Z AUTO 32004KT 1 1/4SM BR OVC003 M02/M03 A2970 RMK AO2 T10171028
Loading
Personal Weather Stations






























Interactive Weather Map New forecast layout! Learn more

10-Day Weather Forecast

Advertisements
Track Severe Weather on mobile